Time;durP1;ratioP1;P1;durP2;ratioP2;P2;SDS_P1;SDS_P2;PMS_P1;PMS_P2;Temp;Humidity;BMP_temperature;BMP_pressure;BME280_temperature;BME280_humidity;BME280_pressure;Samples;Min_cycle;Max_cycle;Signal;HPM_P1;HPM_P2
2022/01/10 00:01:37;;;;;;;166.75;84.78;;;;;;;12.00;100.00;98927.44;4733783;30;20056;-63
2022/01/10 00:04:20;;;;;;;157.20;83.47;;;;;;;12.08;100.00;98922.88;4725506;30;20057;-63
2022/01/10 00:07:09;;;;;;;160.20;82.10;;;;;;;12.12;100.00;98924.47;4715759;30;20130;-64
2022/01/10 00:09:55;;;;;;;167.73;84.25;;;;;;;12.02;100.00;98930.81;4715895;30;20136;-64
2022/01/10 00:12:51;;;;;;;166.77;83.85;;;;;;;11.94;100.00;98932.78;4736065;30;20058;-62
2022/01/10 00:15:27;;;;;;;172.90;85.60;;;;;;;11.83;100.00;98931.38;4721544;30;20062;-63
2022/01/10 00:18:22;;;;;;;154.05;81.00;;;;;;;11.86;100.00;98949.38;4735170;30;20159;-63
2022/01/10 00:21:19;;;;;;;180.82;86.57;;;;;;;11.89;100.00;98951.03;4729647;30;20060;-63
2022/01/10 00:23:54;;;;;;;157.27;82.68;;;;;;;12.09;100.00;98955.53;4711564;30;20057;-63
2022/01/10 00:26:44;;;;;;;155.65;82.15;;;;;;;11.96;100.00;98956.84;4711207;30;20068;-64
2022/01/10 00:29:26;;;;;;;154.00;79.68;;;;;;;11.79;100.00;98954.78;4719445;30;20091;-63
2022/01/10 00:32:15;;;;;;;166.43;81.85;;;;;;;11.81;100.00;98958.97;4712266;30;20176;-63
2022/01/10 00:34:59;;;;;;;154.65;81.53;;;;;;;11.83;100.00;98958.94;4728856;30;20084;-65
2022/01/10 00:37:55;;;;;;;158.85;82.72;;;;;;;11.80;100.00;98967.63;4730053;30;20155;-64
2022/01/10 00:40:30;;;;;;;158.55;82.55;;;;;;;11.64;100.00;98973.28;4745768;30;20052;-66
2022/01/10 00:43:39;;;;;;;156.23;79.38;;;;;;;11.69;100.00;98971.38;4745957;30;20071;-65
2022/01/10 00:46:14;;;;;;;160.15;83.68;;;;;;;11.75;100.00;98973.81;4750581;30;20048;-64
2022/01/10 00:49:03;;;;;;;168.63;84.18;;;;;;;11.74;100.00;98978.13;4745315;30;20052;-65
2022/01/10 00:51:52;;;;;;;158.40;83.15;;;;;;;11.57;100.00;98975.19;4724760;30;20332;-64
2022/01/10 00:54:34;;;;;;;163.27;82.28;;;;;;;11.70;100.00;98984.25;4746449;30;20068;-64
2022/01/10 00:57:23;;;;;;;167.52;84.18;;;;;;;11.55;100.00;98987.28;4732528;30;20058;-65
2022/01/10 01:00:20;;;;;;;162.73;84.13;;;;;;;11.39;100.00;98988.59;4729619;30;20064;-65
2022/01/10 01:02:58;;;;;;;167.85;85.60;;;;;;;11.35;100.00;98995.56;4733675;30;20477;-65
2022/01/10 01:05:55;;;;;;;171.82;86.57;;;;;;;11.32;100.00;98992.25;4748820;30;20633;-64
2022/01/10 01:08:44;;;;;;;167.25;86.25;;;;;;;11.20;100.00;98990.84;4746816;30;20056;-65
2022/01/10 01:14:26;;;;;;;181.43;88.22;;;;;;;11.28;100.00;99006.09;4744998;30;20771;-63
2022/01/10 01:18:31;;;;;;;171.35;86.63;;;;;;;11.19;100.00;99001.19;4750310;30;20052;-63
2022/01/10 01:20:41;;;;;;;181.18;87.93;;;;;;;11.19;100.00;99004.63;4752248;30;20531;-64
2022/01/10 01:26:47;;;;;;;185.50;96.65;;;;;;;11.16;100.00;99014.19;4712000;30;20061;-63
2022/01/10 01:29:32;;;;;;;211.75;106.75;;;;;;;11.24;100.00;99022.56;4726681;30;20068;-63
2022/01/10 01:32:21;;;;;;;220.73;110.82;;;;;;;11.09;100.00;99026.41;4724134;30;20052;-63
2022/01/10 01:35:06;;;;;;;279.20;120.57;;;;;;;11.05;100.00;99033.34;4729736;30;20049;-64
2022/01/10 01:38:02;;;;;;;352.73;133.20;;;;;;;10.98;100.00;99039.56;4695055;30;20147;-63
2022/01/10 01:41:12;;;;;;;388.98;137.95;;;;;;;11.02;100.00;99037.75;4708316;30;20481;-63
2022/01/10 01:43:50;;;;;;;378.52;137.60;;;;;;;11.12;100.00;99045.19;4721513;30;20063;-63
2022/01/10 01:46:49;;;;;;;379.55;138.13;;;;;;;11.42;100.00;99042.66;4733189;30;20068;-63
2022/01/10 01:49:25;;;;;;;407.17;139.52;;;;;;;11.25;100.00;99052.63;4721754;30;20513;-62
2022/01/10 01:52:21;;;;;;;390.45;139.45;;;;;;;11.22;100.00;99050.97;4721532;30;20473;-63
2022/01/10 01:54:57;;;;;;;371.40;134.30;;;;;;;11.25;100.00;99060.38;4733246;30;20068;-63
2022/01/10 01:57:54;;;;;;;;;;;;;;;11.33;100.00;99061.00;4720664;30;20055;-64
2022/01/10 02:00:43;;;;;;;329.08;120.32;;;;;;;11.45;100.00;99063.25;4737433;30;19940;-64
2022/01/10 02:03:26;;;;;;;337.63;123.22;;;;;;;11.44;100.00;99059.81;4698630;30;20087;-63
2022/01/10 02:06:17;;;;;;;340.27;121.60;;;;;;;11.38;100.00;99072.88;4725313;30;20056;-63
2022/01/10 02:09:07;;;;;;;330.00;120.40;;;;;;;11.30;100.00;99084.28;4727157;30;20156;-63
2022/01/10 02:11:53;;;;;;;322.73;117.32;;;;;;;11.48;100.00;99079.50;4705780;30;20060;-63
2022/01/10 02:14:46;;;;;;;350.52;120.30;;;;;;;11.64;100.00;99072.16;4718933;30;20061;-63
2022/01/10 02:17:37;;;;;;;348.38;123.85;;;;;;;11.70;100.00;99084.91;4738782;30;20086;-63
2022/01/10 02:20:26;;;;;;;352.45;121.85;;;;;;;11.58;100.00;99084.38;4714487;30;20079;-63
2022/01/10 02:23:09;;;;;;;358.30;126.80;;;;;;;11.50;100.00;99080.28;4713709;30;20095;-63
2022/01/10 02:26:21;;;;;;;354.65;124.15;;;;;;;11.47;100.00;99100.16;4723590;30;20832;-63
2022/01/10 02:29:13;;;;;;;334.63;122.50;;;;;;;11.60;100.00;99096.34;4727267;30;20056;-63
2022/01/10 02:31:56;;;;;;;356.20;126.32;;;;;;;11.32;100.00;99101.41;4727477;30;20842;-63
2022/01/10 02:34:45;;;;;;;358.88;120.28;;;;;;;11.39;100.00;99099.53;4711410;30;20482;-63
2022/01/10 02:37:42;;;;;;;347.00;122.25;;;;;;;11.38;100.00;99114.16;4727681;30;20087;-63
2022/01/10 02:40:32;;;;;;;;;;;;;;;11.45;100.00;99107.09;4745715;30;20126;-64
2022/01/10 02:43:21;;;;;;;348.77;121.93;;;;;;;11.59;100.00;99115.31;4734332;30;19941;-63
2022/01/10 02:46:03;;;;;;;359.35;121.80;;;;;;;11.69;100.00;99114.16;4737268;30;20163;-63
2022/01/10 02:48:52;;;;;;;359.50;127.25;;;;;;;11.75;100.00;99118.34;4737572;30;20067;-63
2022/01/10 02:51:34;;;;;;;362.40;125.40;;;;;;;11.71;100.00;99125.31;4735221;30;20487;-63
2022/01/10 02:54:23;;;;;;;379.05;128.57;;;;;;;11.68;100.00;99134.84;4739066;30;20067;-63
2022/01/10 02:57:08;;;;;;;390.48;133.85;;;;;;;11.64;100.00;99131.53;4737493;30;20052;-63
2022/01/10 02:59:57;;;;;;;344.20;122.10;;;;;;;11.63;100.00;99124.66;4742434;30;20040;-63
2022/01/10 03:02:51;;;;;;;355.60;127.32;;;;;;;11.69;100.00;99123.63;4739886;30;20162;-64
2022/01/10 03:05:35;;;;;;;381.02;129.43;;;;;;;11.59;100.00;99135.09;4740751;30;20066;-64
2022/01/10 03:08:25;;;;;;;342.15;128.50;;;;;;;11.52;100.00;99145.59;4754261;30;20103;-63
2022/01/10 03:11:11;;;;;;;369.73;132.68;;;;;;;11.63;100.00;99154.78;4740622;30;20047;-63
2022/01/10 03:14:07;;;;;;;352.27;129.63;;;;;;;11.56;100.00;99150.69;4737778;30;20434;-63
2022/01/10 03:16:42;;;;;;;369.30;133.75;;;;;;;11.60;100.00;99158.28;4762652;30;20493;-63
2022/01/10 03:19:38;;;;;;;402.17;139.05;;;;;;;11.57;100.00;99160.97;4754851;30;20211;-63
2022/01/10 03:22:14;;;;;;;379.05;136.75;;;;;;;11.59;100.00;99163.47;4737622;30;20485;-63
2022/01/10 03:25:05;;;;;;;415.93;143.23;;;;;;;11.65;100.00;99176.25;4761366;30;20087;-63
2022/01/10 03:27:56;;;;;;;421.13;145.20;;;;;;;11.58;100.00;99178.09;4734714;30;20311;-63
2022/01/10 03:30:52;;;;;;;372.98;137.05;;;;;;;11.74;100.00;99179.44;4757777;30;20527;-64
2022/01/10 03:33:28;;;;;;;394.95;139.55;;;;;;;11.70;100.00;99182.13;4725718;30;20494;-63
2022/01/10 03:36:24;;;;;;;427.97;147.87;;;;;;;11.77;100.00;99184.53;4730272;30;20048;-63
2022/01/10 03:39:15;;;;;;;408.88;145.00;;;;;;;11.76;100.00;99182.81;4749703;30;20381;-64
2022/01/10 03:42:04;;;;;;;431.30;149.13;;;;;;;11.94;100.00;99186.66;4733957;30;20056;-64
2022/01/10 03:44:47;;;;;;;417.58;147.98;;;;;;;11.78;100.00;99201.72;4762753;30;20048;-64
2022/01/10 03:47:36;;;;;;;422.58;146.25;;;;;;;11.83;100.00;99206.75;4765343;30;20056;-63
2022/01/10 03:50:18;;;;;;;415.15;146.43;;;;;;;12.06;100.00;99216.44;4750231;30;20051;-62
2022/01/10 03:53:08;;;;;;;409.65;145.00;;;;;;;11.82;100.00;99218.78;4732249;30;20060;-63
2022/01/10 03:55:51;;;;;;;381.25;142.23;;;;;;;11.85;100.00;99218.72;4748355;30;20056;-64
2022/01/10 03:58:42;;;;;;;411.25;143.77;;;;;;;11.76;100.00;99221.53;4737274;30;20056;-63
2022/01/10 04:01:24;;;;;;;379.42;139.05;;;;;;;11.88;100.00;99228.13;4739419;30;20052;-64
2022/01/10 04:04:14;;;;;;;380.80;134.73;;;;;;;11.88;100.00;99233.28;4741799;30;20063;-64
2022/01/10 04:06:58;;;;;;;382.40;134.80;;;;;;;11.88;100.00;99239.31;4757811;30;20058;-63
2022/01/10 04:09:47;;;;;;;371.23;129.55;;;;;;;11.73;100.00;99244.81;4738945;30;20052;-63
2022/01/10 04:12:30;;;;;;;387.50;135.93;;;;;;;11.66;100.00;99245.84;4728115;30;20088;-63
2022/01/10 04:15:19;;;;;;;405.48;138.23;;;;;;;11.77;100.00;99246.47;4739493;30;20048;-62
2022/01/10 04:18:02;;;;;;;393.55;137.60;;;;;;;11.98;100.00;99244.19;4751840;30;20066;-65
2022/01/10 04:20:54;;;;;;;;;;;;;;;12.12;100.00;99250.72;4733168;30;20386;-63
2022/01/10 04:23:36;;;;;;;388.15;131.43;;;;;;;12.09;100.00;99253.38;4730494;30;19934;-65
2022/01/10 04:26:27;;;;;;;394.80;135.20;;;;;;;12.06;100.00;99257.75;4729553;30;20135;-65
2022/01/10 04:29:11;;;;;;;387.95;134.00;;;;;;;11.99;100.00;99256.22;4726480;30;20052;-65
2022/01/10 04:32:01;;;;;;;402.50;139.63;;;;;;;12.15;100.00;99262.69;4748048;30;20544;-65
2022/01/10 04:34:44;;;;;;;415.88;143.93;;;;;;;11.98;100.00;99265.72;4726427;30;20631;-65
2022/01/10 04:37:34;;;;;;;425.58;142.75;;;;;;;12.09;100.00;99274.03;4731478;29;20044;-65
2022/01/10 04:40:16;;;;;;;405.67;138.65;;;;;;;12.38;100.00;99265.47;4729901;30;20052;-65
2022/01/10 04:43:05;;;;;;;419.58;142.45;;;;;;;12.37;100.00;99276.69;4730544;30;20052;-65
2022/01/10 04:45:47;;;;;;;420.23;142.85;;;;;;;12.34;100.00;99276.81;4741742;30;20048;-65
2022/01/10 04:48:36;;;;;;;427.15;144.77;;;;;;;12.52;100.00;99280.63;4743841;30;20102;-65
2022/01/10 04:51:20;;;;;;;399.30;147.13;;;;;;;12.55;100.00;99277.94;4726679;30;20060;-64
2022/01/10 04:54:09;;;;;;;429.33;144.43;;;;;;;12.59;100.00;99289.88;4729877;30;20048;-65
2022/01/10 04:56:51;;;;;;;420.30;146.90;;;;;;;12.40;100.00;99286.97;4730817;30;20048;-65
2022/01/10 04:59:41;;;;;;;389.17;139.68;;;;;;;12.34;100.00;99284.56;4713833;30;20059;-64
2022/01/10 05:02:23;;;;;;;;;;;;;;;12.34;100.00;99294.88;4739019;30;20058;-65
2022/01/10 05:05:13;;;;;;;396.48;141.32;;;;;;;12.32;100.00;99295.81;4734624;30;20236;-64
2022/01/10 05:08:02;;;;;;;413.83;142.98;;;;;;;12.29;100.00;99303.66;4730853;30;20133;-67
2022/01/10 05:10:44;;;;;;;400.27;144.90;;;;;;;12.38;100.00;99295.63;4745333;30;20146;-67
2022/01/10 05:13:33;;;;;;;410.98;145.68;;;;;;;12.52;100.00;99294.38;4729564;30;20060;-67
2022/01/10 05:16:18;;;;;;;405.73;137.13;;;;;;;12.45;100.00;99292.84;4728142;30;20048;-67
2022/01/10 05:19:15;;;;;;;372.58;133.63;;;;;;;12.76;100.00;99290.25;4723396;30;20797;-67
2022/01/10 05:21:51;;;;;;;368.40;135.20;;;;;;;12.88;100.00;99286.44;4743584;30;20048;-67
2022/01/10 05:24:40;;;;;;;386.23;139.57;;;;;;;12.79;100.00;99292.72;4749717;30;20056;-67
2022/01/10 05:27:22;;;;;;;357.10;132.50;;;;;;;12.92;100.00;99293.25;4729033;30;20115;-67
2022/01/10 05:30:14;;;;;;;396.88;136.18;;;;;;;13.13;100.00;99295.19;4739717;30;20052;-67
2022/01/10 05:32:56;;;;;;;391.40;134.90;;;;;;;13.15;100.00;99290.84;4745108;30;20062;-67
2022/01/10 05:35:57;;;;;;;368.80;132.00;;;;;;;13.01;100.00;99292.94;4724801;29;20063;-68
2022/01/10 05:38:49;;;;;;;377.75;130.52;;;;;;;13.20;100.00;99296.69;4717713;30;20147;-67
2022/01/10 05:41:38;;;;;;;358.30;129.63;;;;;;;13.31;100.00;99298.97;4731493;30;20060;-68
2022/01/10 05:44:21;;;;;;;378.92;131.10;;;;;;;13.24;100.00;99300.91;4721515;30;20063;-67
2022/01/10 05:47:11;;;;;;;359.70;129.10;;;;;;;13.32;100.00;99308.44;4714187;30;20466;-67
2022/01/10 05:50:08;;;;;;;345.88;124.70;;;;;;;13.47;100.00;99302.78;4744631;30;20064;-69
2022/01/10 05:52:47;;;;;;;347.23;125.82;;;;;;;13.01;100.00;99303.28;4717928;30;20079;-69
2022/01/10 05:55:44;;;;;;;331.55;120.53;;;;;;;13.11;100.00;99307.28;4735391;30;20529;-68
2022/01/10 05:58:20;;;;;;;337.70;122.85;;;;;;;13.21;100.00;99305.31;4710553;30;20072;-68
2022/01/10 06:01:10;;;;;;;358.50;126.82;;;;;;;13.20;100.00;99304.47;4711479;30;20141;-68
2022/01/10 06:04:05;;;;;;;354.20;122.45;;;;;;;13.18;100.00;99300.22;4717724;30;20064;-69
2022/01/10 06:06:50;;;;;;;369.05;126.88;;;;;;;13.44;100.00;99307.19;4714573;30;20056;-68
2022/01/10 06:09:39;;;;;;;347.98;123.90;;;;;;;13.54;100.00;99298.25;4714155;30;20125;-65
2022/01/10 06:12:25;;;;;;;350.75;125.75;;;;;;;13.41;100.00;99298.63;4698760;30;20833;-67
2022/01/10 06:15:15;;;;;;;352.42;125.32;;;;;;;13.55;100.00;99299.94;4713635;30;20474;-67
2022/01/10 06:17:57;;;;;;;347.05;123.65;;;;;;;13.76;100.00;99307.00;4709120;30;20052;-68
2022/01/10 06:20:46;;;;;;;348.48;120.70;;;;;;;13.55;100.00;99307.69;4694979;30;20448;-67
2022/01/10 06:23:28;;;;;;;338.52;121.15;;;;;;;13.46;100.00;99303.66;4720165;30;20464;-66
2022/01/10 06:26:20;;;;;;;339.30;117.70;;;;;;;13.57;100.00;99306.72;4723087;30;20063;-67
2022/01/10 06:29:02;;;;;;;324.77;115.57;;;;;;;13.14;100.00;99304.66;4719422;30;20052;-68
2022/01/10 06:31:53;;;;;;;325.90;115.55;;;;;;;13.31;100.00;99301.56;4706737;30;20293;-66
2022/01/10 06:34:49;;;;;;;305.52;113.90;;;;;;;13.46;100.00;99297.63;4732794;30;20067;-68
2022/01/10 06:37:27;;;;;;;288.33;106.82;;;;;;;13.35;100.00;99293.63;4723020;30;20052;-66
2022/01/10 06:40:27;;;;;;;302.02;110.07;;;;;;;13.28;100.00;99289.56;4739835;30;20062;-68
2022/01/10 06:43:16;;;;;;;307.88;109.38;;;;;;;13.45;100.00;99293.34;4738726;30;20052;-67
2022/01/10 06:46:07;;;;;;;296.40;107.55;;;;;;;13.60;100.00;99296.28;4734833;30;20051;-67
2022/01/10 06:48:50;;;;;;;306.73;108.72;;;;;;;13.63;100.00;99295.34;4732371;30;20494;-67
2022/01/10 06:51:39;;;;;;;290.60;104.53;;;;;;;13.58;100.00;99290.31;4730762;30;20059;-68
2022/01/10 06:54:21;;;;;;;297.98;105.80;;;;;;;13.62;100.00;99280.72;4730553;30;20059;-67
2022/01/10 06:57:11;;;;;;;292.83;106.22;;;;;;;13.84;100.00;99286.88;4730511;30;20047;-67
2022/01/10 06:59:53;;;;;;;295.70;106.47;;;;;;;13.68;100.00;99272.75;4735885;30;20965;-68
2022/01/10 07:02:50;;;;;;;293.02;105.00;;;;;;;13.91;100.00;99267.63;4746673;30;20275;-68
2022/01/10 07:05:33;;;;;;;279.13;105.05;;;;;;;13.83;100.00;99264.47;4738009;30;20068;-66
2022/01/10 07:08:24;;;;;;;287.83;104.40;;;;;;;14.15;100.00;99271.97;4735591;30;20056;-67
2022/01/10 07:11:09;;;;;;;272.02;105.50;;;;;;;14.31;100.00;99263.66;4754466;30;20067;-67
2022/01/10 07:13:58;;;;;;;281.95;101.53;;;;;;;14.07;100.00;99262.78;4718624;30;20438;-68
2022/01/10 07:16:41;;;;;;;276.83;101.80;;;;;;;14.13;100.00;99252.19;4740300;30;20125;-67
2022/01/10 07:19:31;;;;;;;273.55;102.55;;;;;;;14.11;100.00;99251.41;4732755;30;20056;-67
2022/01/10 07:22:16;;;;;;;280.00;102.03;;;;;;;14.14;100.00;99249.53;4696557;30;20057;-67
2022/01/10 07:25:05;;;;;;;279.35;108.75;;;;;;;14.40;100.00;99253.00;4733417;30;20048;-67
2022/01/10 07:27:47;;;;;;;281.10;108.45;;;;;;;14.30;100.00;99249.84;4749066;30;20043;-67
2022/01/10 07:30:37;;;;;;;260.05;103.88;;;;;;;14.38;100.00;99244.38;4735579;30;20127;-68
2022/01/10 07:33:19;;;;;;;271.48;103.30;;;;;;;14.23;100.00;99234.56;4707615;30;20048;-69
2022/01/10 07:36:12;;;;;;;262.67;106.30;;;;;;;14.60;100.00;99241.91;4738385;29;20055;-68
2022/01/10 07:38:54;;;;;;;269.55;104.68;;;;;;;14.81;100.00;99234.16;4737204;30;20060;-68
2022/01/10 07:41:43;;;;;;;272.48;107.68;;;;;;;14.86;100.00;99236.56;4718054;30;20056;-71
2022/01/10 07:44:35;;;;;;;271.90;105.53;;;;;;;14.77;100.00;99242.94;4716295;30;20779;-68
2022/01/10 07:47:24;;;;;;;328.85;126.13;;;;;;;14.88;100.00;99243.38;4700335;30;20083;-69
2022/01/10 07:50:07;;;;;;;354.05;131.07;;;;;;;14.73;100.00;99243.97;4736276;30;20441;-66
2022/01/10 07:52:56;;;;;;;356.92;139.00;;;;;;;14.76;100.00;99238.69;4714394;30;20064;-67
2022/01/10 07:55:39;;;;;;;364.55;134.75;;;;;;;14.57;100.00;99242.84;4686769;30;20055;-68
2022/01/10 07:58:28;;;;;;;367.27;136.63;;;;;;;14.75;100.00;99241.31;4727483;30;20068;-67
2022/01/10 08:01:19;;;;;;;380.15;139.65;;;;;;;14.55;100.00;99231.69;4710488;30;20063;-67
2022/01/10 08:04:03;;;;;;;396.20;141.30;;;;;;;14.40;100.00;99229.66;4711557;30;20056;-67
2022/01/10 08:07:01;;;;;;;396.95;144.27;;;;;;;14.18;100.00;99225.22;4715224;30;20060;-67
2022/01/10 08:09:36;;;;;;;410.08;146.63;;;;;;;14.09;100.00;99227.28;4716372;30;20059;-65
2022/01/10 08:12:35;;;;;;;445.67;160.43;;;;;;;14.12;100.00;99230.63;4737876;30;20234;-66
2022/01/10 08:15:12;;;;;;;474.35;173.30;;;;;;;14.13;100.00;99223.69;4728750;30;20083;-70
2022/01/10 08:18:11;;;;;;;483.98;183.10;;;;;;;13.84;100.00;99227.31;4723139;30;20115;-66
2022/01/10 08:20:47;;;;;;;484.17;189.60;;;;;;;13.67;100.00;99221.84;4729037;30;20067;-67
2022/01/10 08:23:45;;;;;;;501.20;187.27;;;;;;;13.76;100.00;99221.53;4681822;30;20139;-66
2022/01/10 08:26:22;;;;;;;492.63;185.80;;;;;;;13.68;100.00;99218.38;4727407;30;20061;-67
2022/01/10 08:29:18;;;;;;;477.20;185.77;;;;;;;13.69;100.00;99213.16;4715577;30;20056;-67
2022/01/10 08:31:53;;;;;;;478.63;178.60;;;;;;;13.79;100.00;99211.09;4707761;30;20049;-67
2022/01/10 08:34:47;;;;;;;485.77;178.98;;;;;;;13.51;100.00;99215.50;4733127;30;20143;-66
2022/01/10 08:37:30;;;;;;;471.80;171.48;;;;;;;13.61;100.00;99211.72;4718322;30;20054;-68
2022/01/10 08:40:27;;;;;;;451.63;167.57;;;;;;;13.59;100.00;99216.09;4751384;30;20063;-69
2022/01/10 08:43:06;;;;;;;451.42;168.18;;;;;;;13.74;100.00;99208.66;4745790;30;20069;-67
2022/01/10 08:46:02;;;;;;;453.05;164.90;;;;;;;13.82;100.00;99215.31;4737582;30;20441;-67
2022/01/10 08:48:51;;;;;;;441.58;156.05;;;;;;;13.89;100.00;99216.81;4746598;30;20067;-68
2022/01/10 08:51:42;;;;;;;433.45;157.38;;;;;;;14.09;100.00;99220.38;4749866;30;20794;-69
2022/01/10 08:54:32;;;;;;;424.90;149.75;;;;;;;14.09;100.00;99203.97;4736706;30;20064;-71
2022/01/10 08:57:14;;;;;;;421.67;149.32;;;;;;;13.99;100.00;99212.97;4744223;30;20056;-69
2022/01/10 09:00:03;;;;;;;415.73;146.40;;;;;;;14.09;100.00;99206.56;4749801;30;20145;-67
2022/01/10 09:02:45;;;;;;;402.77;143.27;;;;;;;14.06;100.00;99217.88;4748687;30;20543;-64
2022/01/10 09:05:37;;;;;;;412.20;142.90;;;;;;;14.09;100.00;99215.19;4740240;30;20169;-69
2022/01/10 09:08:20;;;;;;;407.30;145.63;;;;;;;14.17;100.00;99213.16;4737978;30;20056;-70
2022/01/10 09:11:11;;;;;;;385.95;142.77;;;;;;;14.15;100.00;99212.38;4738493;30;20052;-68
2022/01/10 09:13:54;;;;;;;386.58;139.02;;;;;;;14.12;100.00;99209.06;4749021;30;20051;-68
2022/01/10 09:16:45;;;;;;;370.85;135.70;;;;;;;14.05;100.00;99211.00;4758326;30;20225;-68
2022/01/10 09:19:27;;;;;;;353.92;132.77;;;;;;;13.79;100.00;99205.91;4743003;30;20141;-68
2022/01/10 09:22:16;;;;;;;354.75;125.47;;;;;;;13.87;100.00;99210.81;4758572;30;20060;-68
2022/01/10 09:25:00;;;;;;;337.52;129.45;;;;;;;13.92;100.00;99203.72;4749221;30;20063;-68
2022/01/10 09:27:49;;;;;;;338.13;127.18;;;;;;;13.92;100.00;99202.00;4731140;30;20060;-70
2022/01/10 09:30:34;;;;;;;332.63;124.80;;;;;;;14.06;100.00;99204.94;4720958;30;20063;-68
2022/01/10 09:33:23;;;;;;;331.48;119.80;;;;;;;14.10;100.00;99205.69;4743488;30;20389;-68
2022/01/10 09:36:12;;;;;;;311.05;121.15;;;;;;;14.27;100.00;99200.72;4733289;30;20393;-68
2022/01/10 09:39:02;;;;;;;332.83;119.28;;;;;;;14.23;100.00;99203.47;4718604;30;20056;-68
2022/01/10 09:41:45;;;;;;;324.30;119.13;;;;;;;14.08;100.00;99197.94;4732612;30;20064;-68
2022/01/10 09:44:34;;;;;;;311.88;121.55;;;;;;;14.30;100.00;99202.34;4703342;30;20563;-69
2022/01/10 09:47:23;;;;;;;303.13;118.65;;;;;;;14.18;100.00;99204.50;4731025;30;20373;-68
2022/01/10 09:50:06;;;;;;;311.65;116.72;;;;;;;13.99;100.00;99205.19;4732354;30;20151;-69
2022/01/10 09:53:03;;;;;;;301.65;115.45;;;;;;;13.96;100.00;99198.41;4735079;30;20082;-67
2022/01/10 09:55:38;;;;;;;311.10;116.60;;;;;;;14.14;100.00;99199.47;4716253;30;20052;-67
2022/01/10 09:58:28;;;;;;;295.80;113.10;;;;;;;14.25;100.00;99205.13;4720829;30;20074;-67
2022/01/10 10:01:21;;;;;;;272.30;104.00;;;;;;;14.26;100.00;99201.63;4730104;30;20052;-68
2022/01/10 10:04:04;;;;;;;271.40;97.75;;;;;;;14.08;100.00;99208.31;4717379;30;20071;-67
2022/01/10 10:06:54;;;;;;;259.30;97.30;;;;;;;14.18;100.00;99204.50;4737367;30;20057;-67
2022/01/10 10:09:44;;;;;;;242.52;89.43;;;;;;;14.18;100.00;99204.50;4736829;30;20548;-68
2022/01/10 10:12:27;;;;;;;222.15;86.28;;;;;;;13.97;100.00;99200.06;4739475;30;20060;-69
2022/01/10 10:15:29;;;;;;;234.40;82.03;;;;;;;14.12;100.00;99199.53;4723269;30;20630;-67
2022/01/10 10:18:11;;;;;;;196.65;76.70;;;;;;;13.82;100.00;99194.59;4715472;30;20403;-68
2022/01/10 10:21:07;;;;;;;208.60;78.97;;;;;;;13.84;100.00;99196.22;4732804;30;20098;-69
2022/01/10 10:23:49;;;;;;;191.57;75.43;;;;;;;14.02;100.00;99195.59;4728674;30;20798;-69
2022/01/10 10:26:39;;;;;;;197.50;74.25;;;;;;;14.05;100.00;99194.63;4715613;30;20479;-70
2022/01/10 10:29:29;;;;;;;198.60;75.07;;;;;;;13.98;100.00;99191.41;4730179;30;20580;-70
2022/01/10 10:32:15;;;;;;;191.80;76.50;;;;;;;13.85;100.00;99184.13;4715432;30;20057;-70
2022/01/10 10:35:05;;;;;;;196.77;72.20;;;;;;;13.96;100.00;99188.03;4728546;30;20048;-68
2022/01/10 10:37:48;;;;;;;177.43;71.53;;;;;;;13.83;100.00;99185.91;4723706;30;20058;-69
2022/01/10 10:40:51;;;;;;;182.48;72.00;;;;;;;13.87;100.00;99180.59;4748338;30;20433;-70
2022/01/10 10:43:35;;;;;;;181.52;69.28;;;;;;;13.93;100.00;99171.75;4737413;30;20588;-70
2022/01/10 10:46:27;;;;;;;185.38;71.57;;;;;;;13.83;100.00;99178.16;4734422;30;20056;-68
2022/01/10 10:49:10;;;;;;;184.63;69.32;;;;;;;13.89;100.00;99175.38;4755269;30;20056;-69
2022/01/10 10:52:00;;;;;;;172.52;70.25;;;;;;;13.89;100.00;99181.38;4739004;30;20051;-70
2022/01/10 10:54:58;;;;;;;160.95;66.53;;;;;;;13.98;100.00;99178.44;4732130;30;20059;-68
2022/01/10 10:57:34;;;;;;;164.75;67.40;;;;;;;14.04;100.00;99180.00;4756677;30;20127;-70
2022/01/10 11:00:31;;;;;;;156.55;64.60;;;;;;;14.11;100.00;99177.13;4730918;30;20056;-70
2022/01/10 11:03:12;;;;;;;159.23;63.75;;;;;;;13.82;100.00;99173.88;4749898;30;20484;-70
2022/01/10 11:06:04;;;;;;;165.35;65.50;;;;;;;13.90;100.00;99179.63;4755859;30;20060;-70
2022/01/10 11:08:54;;;;;;;159.95;63.50;;;;;;;13.91;100.00;99183.91;4741464;30;20052;-73
2022/01/10 11:11:36;;;;;;;160.32;66.15;;;;;;;13.93;100.00;99182.97;4754052;30;20052;-69
2022/01/10 11:14:27;;;;;;;176.20;67.90;;;;;;;13.86;100.00;99180.63;4754127;30;20064;-70
2022/01/10 11:17:20;;;;;;;165.48;68.65;;;;;;;13.93;100.00;99180.38;4752853;30;20143;-73
2022/01/10 11:20:29;;;;;;;169.93;67.07;;;;;;;13.85;100.00;99184.97;4751329;30;20048;-71
2022/01/10 11:23:50;;;;;;;167.55;65.93;;;;;;;13.95;100.00;99186.34;4737939;30;20044;-70
2022/01/10 11:26:46;;;;;;;;;;;;;;;13.97;100.00;99179.34;4750548;30;20143;-71
2022/01/10 11:29:30;;;;;;;171.15;65.55;;;;;;;13.83;100.00;99188.50;4753243;30;20422;-71
2022/01/10 11:32:19;;;;;;;172.02;65.43;;;;;;;13.74;100.00;99184.50;4736867;30;20090;-71
2022/01/10 11:35:09;;;;;;;191.07;67.93;;;;;;;13.90;100.00;99180.47;4751262;30;20071;-70
2022/01/10 11:37:53;;;;;;;178.02;68.32;;;;;;;13.82;100.00;99186.81;4741942;30;20752;-72
2022/01/10 11:40:49;;;;;;;167.25;67.60;;;;;;;13.80;100.00;99189.47;4738835;30;20059;-72
2022/01/10 11:43:37;;;;;;;163.52;67.90;;;;;;;13.59;100.00;99193.63;4729623;30;20084;-73
2022/01/10 11:46:37;;;;;;;174.18;69.65;;;;;;;13.51;100.00;99189.59;4733437;30;20065;-70
2022/01/10 11:49:20;;;;;;;178.40;71.88;;;;;;;13.65;100.00;99184.81;4735540;30;20053;-71
2022/01/10 11:52:19;;;;;;;166.73;69.35;;;;;;;13.62;100.00;99182.34;4719621;30;20056;-72
2022/01/10 11:54:54;;;;;;;176.00;69.80;;;;;;;13.51;100.00;99181.84;4752701;30;20091;-71
2022/01/10 11:57:51;;;;;;;191.50;72.93;;;;;;;13.34;100.00;99182.41;4739669;30;20560;-71
2022/01/10 12:00:36;;;;;;;188.70;73.25;;;;;;;13.37;100.00;99180.56;4740665;30;20060;-71
2022/01/10 12:03:33;;;;;;;181.18;78.57;;;;;;;13.35;100.00;99179.78;4732906;30;20544;-70
2022/01/10 12:06:08;;;;;;;192.48;77.40;;;;;;;13.40;100.00;99200.34;4732885;30;20088;-70
2022/01/10 12:09:07;;;;;;;195.07;77.70;;;;;;;13.22;100.00;99191.44;4715266;30;20118;-72
2022/01/10 12:11:46;;;;;;;192.95;73.93;;;;;;;12.95;100.00;99195.69;4714936;30;20123;-72
2022/01/10 12:14:35;;;;;;;193.40;77.40;;;;;;;12.89;100.00;99188.16;4697965;30;20060;-71
2022/01/10 12:17:20;;;;;;;;;;;;;;;12.72;100.00;99187.81;4727072;30;20570;-71
2022/01/10 12:20:11;;;;;;;201.52;74.35;;;;;;;12.56;100.00;99191.75;4713982;30;19930;-71
2022/01/10 12:23:05;;;;;;;202.02;77.43;;;;;;;12.60;100.00;99188.19;4724507;30;20074;-71
2022/01/10 12:25:48;;;;;;;221.10;75.95;;;;;;;12.48;100.00;99188.56;4700037;30;20056;-71
2022/01/10 12:28:38;;;;;;;203.50;75.57;;;;;;;12.36;100.00;99184.59;4715049;30;20063;-71
2022/01/10 12:31:23;;;;;;;219.65;77.35;;;;;;;12.34;100.00;99188.13;4731053;30;20052;-72
2022/01/10 12:34:14;;;;;;;225.73;77.22;;;;;;;12.41;100.00;99190.47;4717460;30;20055;-72
2022/01/10 12:37:04;;;;;;;218.88;78.75;;;;;;;12.28;100.00;99194.31;4737432;30;20051;-71
2022/01/10 12:40:00;;;;;;;217.50;78.68;;;;;;;12.20;100.00;99191.09;4719521;30;20055;-69